Time;durP1;ratioP1;P1;durP2;ratioP2;P2;SDS_P1;SDS_P2;PMS_P1;PMS_P2;Temp;Humidity;BMP_temperature;BMP_pressure;BME280_temperature;BME280_humidity;BME280_pressure;Samples;Min_cycle;Max_cycle;Signal;HPM_P1;HPM_P2
2021/04/18 00:03:58;;;;;;;0.00;0.00;;;;;;;5.95;76.66;102444.25;10410896;28;20028;-69
2021/04/18 00:08:59;;;;;;;0.00;0.00;;;;;;;5.98;76.00;102449.34;10409767;28;20024;-69
2021/04/18 00:13:59;;;;;;;0.00;0.00;;;;;;;6.03;75.32;102442.00;10408982;28;20292;-69
2021/04/18 00:18:59;;;;;;;0.00;0.00;;;;;;;6.13;74.67;102431.72;10409720;28;20484;-69
2021/04/18 00:24:00;;;;;;;0.03;0.03;;;;;;;6.21;74.41;102429.47;10408378;28;20021;-69
2021/04/18 00:29:01;;;;;;;0.00;0.00;;;;;;;6.27;74.08;102436.19;10409282;28;20271;-69
2021/04/18 00:34:01;;;;;;;0.00;0.00;;;;;;;6.28;74.27;102425.53;10408837;28;20017;-68
2021/04/18 00:39:02;;;;;;;0.00;0.00;;;;;;;6.26;74.83;102410.69;10408373;28;20029;-68
2021/04/18 00:44:02;;;;;;;0.00;0.00;;;;;;;6.28;75.09;102414.94;10409179;28;20028;-69
2021/04/18 00:49:03;;;;;;;0.00;0.00;;;;;;;6.24;74.96;102402.84;10415759;28;20021;-67
2021/04/18 00:54:03;;;;;;;0.00;0.00;;;;;;;6.24;75.58;102404.63;10416188;28;20022;-68
2021/04/18 00:59:04;;;;;;;0.00;0.00;;;;;;;6.22;75.50;102398.56;10414393;28;20467;-68
2021/04/18 01:04:05;;;;;;;0.00;0.00;;;;;;;6.19;75.77;102394.31;10416289;28;20021;-68
2021/04/18 01:09:05;;;;;;;0.00;0.00;;;;;;;6.19;76.01;102390.81;10441729;28;20103;-66
2021/04/18 01:14:05;;;;;;;0.10;0.10;;;;;;;6.17;76.09;102401.50;10492061;28;20115;-68
2021/04/18 01:19:06;;;;;;;0.00;0.00;;;;;;;6.16;76.36;102398.94;10458079;28;20032;-68
2021/04/18 01:24:07;;;;;;;0.00;0.00;;;;;;;6.14;76.58;102399.06;10419278;28;20643;-67
2021/04/18 01:29:07;;;;;;;0.00;0.00;;;;;;;6.15;76.58;102390.16;10414920;28;20404;-67
2021/04/18 01:34:12;;;;;;;0.00;0.00;;;;;;;6.12;76.99;102383.25;10414980;28;20104;-68
2021/04/18 01:39:14;;;;;;;0.00;0.00;;;;;;;6.11;76.95;102386.00;10415255;28;20033;-68
2021/04/18 01:44:14;;;;;;;0.00;0.00;;;;;;;6.11;77.43;102388.66;10415679;28;20022;-68
2021/04/18 01:49:14;;;;;;;0.00;0.00;;;;;;;6.06;77.62;102382.78;10428583;28;20293;-68
2021/04/18 01:54:15;;;;;;;0.00;0.00;;;;;;;5.99;78.14;102379.66;10449701;28;20382;-68
2021/04/18 01:59:15;;;;;;;0.00;0.00;;;;;;;5.93;78.43;102368.53;10433127;28;20055;-68
2021/04/18 02:04:23;;;;;;;0.00;0.00;;;;;;;5.82;79.27;102380.63;10451550;28;20800;-68
2021/04/18 02:09:24;;;;;;;0.00;0.00;;;;;;;5.73;79.47;102375.88;10450212;28;20036;-68
2021/04/18 02:14:25;;;;;;;0.00;0.00;;;;;;;5.68;79.30;102388.50;10454600;28;20013;-68
2021/04/18 02:19:27;;;;;;;0.00;0.00;;;;;;;5.59;79.98;102392.53;10453684;28;20048;-68
2021/04/18 02:24:28;;;;;;;0.00;0.00;;;;;;;5.51;80.68;102388.63;10453659;28;20021;-68
2021/04/18 02:29:28;;;;;;;0.00;0.00;;;;;;;5.45;81.01;102389.81;10453386;28;20475;-68
2021/04/18 02:34:28;;;;;;;0.00;0.00;;;;;;;5.30;81.65;102382.78;10450509;28;20363;-68
2021/04/18 02:39:29;;;;;;;0.00;0.00;;;;;;;5.24;81.77;102375.19;10452362;28;20761;-68
2021/04/18 02:44:29;;;;;;;0.00;0.00;;;;;;;5.18;81.39;102379.03;10453718;28;20024;-68
2021/04/18 02:49:29;;;;;;;0.00;0.00;;;;;;;5.09;81.24;102374.25;10435014;28;20483;-68
2021/04/18 02:54:30;;;;;;;0.00;0.00;;;;;;;4.97;81.82;102376.66;10452889;28;20763;-68
2021/04/18 02:59:30;;;;;;;0.00;0.00;;;;;;;4.88;81.24;102371.00;10451949;28;20021;-68
2021/04/18 03:04:31;;;;;;;0.10;0.10;;;;;;;4.78;81.82;102370.66;10450798;28;20266;-68
2021/04/18 03:09:31;;;;;;;0.00;0.00;;;;;;;4.61;82.74;102366.31;10465566;23;20476;-72
2021/04/18 03:14:31;;;;;;;0.08;0.08;;;;;;;4.42;81.76;102362.94;10444231;28;20037;-72
2021/04/18 03:19:39;;;;;;;0.00;0.00;;;;;;;4.25;83.13;102354.16;10451435;28;20569;-72
2021/04/18 03:24:41;;;;;;;0.00;0.00;;;;;;;4.20;82.48;102360.59;10451188;28;20437;-72
2021/04/18 03:29:41;;;;;;;0.00;0.00;;;;;;;4.07;82.28;102371.78;10453086;28;20087;-72
2021/04/18 03:34:41;;;;;;;0.10;0.10;;;;;;;3.89;82.86;102364.78;10448992;28;20557;-72
2021/04/18 03:39:42;;;;;;;0.10;0.10;;;;;;;3.78;83.33;102361.84;10449400;28;20452;-72
2021/04/18 03:44:43;;;;;;;0.00;0.00;;;;;;;3.68;83.02;102355.34;10450699;28;20017;-72
2021/04/18 03:49:43;;;;;;;0.08;0.08;;;;;;;3.62;83.84;102362.63;10444726;28;20630;-72
2021/04/18 03:54:43;;;;;;;0.10;0.10;;;;;;;3.58;83.61;102366.34;10449319;28;20023;-71
2021/04/18 03:59:43;;;;;;;0.10;0.10;;;;;;;3.51;84.04;102358.81;10448443;28;20044;-71
2021/04/18 04:04:44;;;;;;;0.00;0.00;;;;;;;3.49;83.32;102363.31;10448251;28;20013;-71
2021/04/18 04:09:44;;;;;;;0.10;0.10;;;;;;;3.50;83.06;102370.31;10449488;28;20035;-71
2021/04/18 04:14:44;;;;;;;0.10;0.10;;;;;;;3.45;82.50;102375.78;10451313;28;20013;-71
2021/04/18 04:19:45;;;;;;;0.10;0.10;;;;;;;3.26;83.13;102375.84;10451849;28;20028;-71
2021/04/18 04:24:46;;;;;;;0.00;0.00;;;;;;;3.25;83.62;102379.38;10450831;28;20024;-71
2021/04/18 04:29:48;;;;;;;0.00;0.00;;;;;;;3.51;82.97;102375.47;10447882;28;20307;-71
2021/04/18 04:34:49;;;;;;;0.10;0.10;;;;;;;3.98;81.75;102371.38;10446408;28;20110;-71
2021/04/18 04:39:49;;;;;;;0.13;0.13;;;;;;;4.55;79.53;102371.91;10447674;28;20089;-71
2021/04/18 04:44:50;;;;;;;0.08;0.08;;;;;;;5.11;76.23;102369.72;10429224;28;20017;-71
2021/04/18 04:49:50;;;;;;;0.00;0.00;;;;;;;5.66;73.92;102377.16;10444028;28;20238;-71
2021/04/18 04:54:52;;;;;;;0.00;0.00;;;;;;;6.17;71.97;102369.75;10431271;28;20017;-72
2021/04/18 04:59:52;;;;;;;0.00;0.00;;;;;;;6.76;69.04;102370.50;10430428;28;20048;-72
2021/04/18 05:04:52;;;;;;;0.00;0.00;;;;;;;7.28;66.86;102374.28;10448859;28;20021;-71
2021/04/18 05:09:53;;;;;;;0.03;0.03;;;;;;;8.23;65.23;102380.28;10448207;28;20029;-71
2021/04/18 05:14:53;;;;;;;0.00;0.00;;;;;;;9.01;61.37;102380.97;10449288;28;20502;-71
2021/04/18 05:19:53;;;;;;;0.00;0.00;;;;;;;9.32;59.40;102380.56;10451135;28;20302;-71
2021/04/18 05:24:54;;;;;;;0.00;0.00;;;;;;;9.87;59.49;102379.94;10447106;28;20020;-71
2021/04/18 05:29:54;;;;;;;0.10;0.10;;;;;;;10.53;56.97;102384.66;10444419;28;20259;-71
2021/04/18 05:34:54;;;;;;;0.00;0.00;;;;;;;10.99;55.36;102384.50;10454515;28;20021;-71
2021/04/18 05:39:55;;;;;;;0.10;0.10;;;;;;;11.27;55.09;102392.94;10451939;28;20407;-71
2021/04/18 05:44:56;;;;;;;0.10;0.10;;;;;;;11.25;54.97;102395.72;10455746;28;20025;-71
2021/04/18 05:49:56;;;;;;;0.10;0.10;;;;;;;11.59;54.88;102392.94;10452248;28;20021;-71
2021/04/18 05:54:56;;;;;;;0.10;0.10;;;;;;;12.00;52.79;102397.50;10452327;28;20021;-71
2021/04/18 05:59:56;;;;;;;0.10;0.10;;;;;;;12.55;50.81;102399.94;10454702;28;20033;-71
2021/04/18 06:04:57;;;;;;;0.10;0.10;;;;;;;12.80;50.48;102395.97;10454615;28;20092;-71
2021/04/18 06:09:57;;;;;;;0.10;0.10;;;;;;;13.06;49.77;102390.09;10451551;28;20025;-71
2021/04/18 06:14:57;;;;;;;0.20;0.20;;;;;;;13.21;48.83;102399.44;10454666;28;20476;-70
2021/04/18 06:19:58;;;;;;;0.10;0.10;;;;;;;13.31;48.41;102389.63;10456438;28;20464;-71
2021/04/18 06:24:58;;;;;;;0.10;0.10;;;;;;;13.14;49.51;102388.44;10456276;28;20600;-71
2021/04/18 06:29:59;;;;;;;0.10;0.10;;;;;;;12.56;50.26;102382.91;10453140;28;20094;-71
2021/04/18 06:34:59;;;;;;;0.10;0.10;;;;;;;12.58;51.15;102380.09;10450903;28;20115;-71
2021/04/18 06:40:00;;;;;;;0.10;0.10;;;;;;;13.09;49.65;102381.81;10448522;28;20104;-71
2021/04/18 06:45:00;;;;;;;0.10;0.10;;;;;;;13.40;49.12;102373.72;10452286;28;20013;-71
2021/04/18 06:50:01;;;;;;;0.10;0.10;;;;;;;13.14;49.33;102377.72;10448810;28;20027;-71
2021/04/18 06:55:01;;;;;;;0.10;0.10;;;;;;;13.37;48.54;102369.47;10453108;28;20435;-71
2021/04/18 07:00:04;;;;;;;0.10;0.10;;;;;;;13.75;50.49;102365.94;10449496;28;20106;-71
2021/04/18 07:05:07;;;;;;;0.10;0.10;;;;;;;14.11;47.50;102371.56;10452727;28;20460;-71
2021/04/18 07:10:13;;;;;;;0.10;0.10;;;;;;;13.39;49.56;102372.88;10433840;28;20395;-71
2021/04/18 07:15:34;;;;;;;0.10;0.10;;;;;;;13.83;48.78;102373.28;10451888;28;20040;-71
2021/04/18 07:20:50;;;;;;;0.10;0.10;;;;;;;13.80;48.31;102369.06;10433472;28;20048;-71
2021/04/18 07:25:51;;;;;;;0.10;0.10;;;;;;;14.21;47.96;102374.19;10448335;28;20053;-71
2021/04/18 07:31:02;;;;;;;0.10;0.10;;;;;;;14.08;48.53;102379.00;10446960;28;20475;-71
2021/04/18 07:36:18;;;;;;;0.10;0.10;;;;;;;13.60;49.56;102364.69;10451782;28;20384;-71
2021/04/18 07:41:20;;;;;;;0.10;0.10;;;;;;;13.86;48.63;102366.81;10450862;28;20013;-71
2021/04/18 07:46:21;;;;;;;0.13;0.13;;;;;;;14.14;49.89;102368.59;10449616;28;20013;-71
2021/04/18 07:51:23;;;;;;;0.10;0.10;;;;;;;13.75;48.07;102365.13;10446987;28;20062;-71
2021/04/18 07:56:23;;;;;;;0.10;0.10;;;;;;;13.59;50.43;102355.84;10450126;28;20032;-71
2021/04/18 08:01:24;;;;;;;0.10;0.10;;;;;;;13.96;50.20;102356.91;10450347;28;20536;-71
2021/04/18 08:06:26;;;;;;;0.10;0.10;;;;;;;13.38;51.68;102359.63;10451660;28;20028;-71
2021/04/18 08:11:26;;;;;;;0.10;0.10;;;;;;;13.33;52.28;102362.72;10426498;28;20758;-71
2021/04/18 08:16:31;;;;;;;0.10;0.10;;;;;;;12.73;54.82;102360.03;10449715;28;20017;-71
2021/04/18 08:21:37;;;;;;;0.10;0.10;;;;;;;12.03;57.51;102353.66;10448659;28;20404;-71
2021/04/18 08:26:37;;;;;;;0.10;0.10;;;;;;;11.97;56.58;102370.22;10426077;28;20024;-71
2021/04/18 08:31:40;;;;;;;0.10;0.10;;;;;;;12.30;57.61;102365.63;10445533;28;20021;-71
2021/04/18 08:36:47;;;;;;;0.10;0.10;;;;;;;13.03;56.03;102359.16;10448593;28;20060;-71
2021/04/18 08:41:56;;;;;;;0.10;0.10;;;;;;;13.33;57.25;102352.03;10449194;28;20028;-71
2021/04/18 08:47:01;;;;;;;0.10;0.10;;;;;;;12.79;56.03;102359.50;10449863;28;20020;-72
2021/04/18 08:52:07;;;;;;;0.10;0.10;;;;;;;12.93;58.27;102352.06;10448596;28;20495;-71
2021/04/18 08:57:21;;;;;;;0.10;0.10;;;;;;;12.94;54.92;102359.94;10450417;28;20484;-71
2021/04/18 09:02:26;;;;;;;0.10;0.10;;;;;;;13.08;56.20;102351.53;10431395;28;20031;-71
2021/04/18 09:07:32;;;;;;;0.10;0.10;;;;;;;13.51;57.30;102347.66;10436402;28;20464;-71
2021/04/18 09:12:33;;;;;;;0.10;0.10;;;;;;;14.19;53.25;102336.81;10474634;22;20527;-67
2021/04/18 09:17:35;;;;;;;0.10;0.10;;;;;;;14.56;52.56;102344.03;10486952;28;20107;-68
2021/04/18 09:22:36;;;;;;;0.10;0.10;;;;;;;14.23;54.91;102361.50;10461465;28;20027;-68
2021/04/18 09:27:39;;;;;;;0.10;0.10;;;;;;;14.29;54.92;102355.56;10457057;28;20040;-68
2021/04/18 09:32:48;;;;;;;0.10;0.10;;;;;;;13.87;55.79;102366.63;10456290;28;20027;-68
2021/04/18 09:37:55;;;;;;;0.10;0.10;;;;;;;13.20;58.46;102373.66;10438173;28;20494;-68
2021/04/18 09:42:55;;;;;;;0.15;0.15;;;;;;;12.30;60.69;102357.59;10456220;28;20467;-69
2021/04/18 09:48:09;;;;;;;0.10;0.10;;;;;;;12.52;61.54;102365.44;10437000;28;20024;-69
2021/04/18 09:53:18;;;;;;;0.10;0.10;;;;;;;12.50;61.66;102350.53;10455452;28;20013;-68
2021/04/18 09:58:39;;;;;;;0.10;0.10;;;;;;;12.75;60.02;102359.91;10436719;28;20476;-69
2021/04/18 10:03:44;;;;;;;0.10;0.10;;;;;;;12.86;59.09;102363.31;10454648;28;20430;-68
2021/04/18 10:08:57;;;;;;;0.10;0.10;;;;;;;13.13;61.31;102365.34;10453775;28;20050;-68
2021/04/18 10:13:59;;;;;;;0.10;0.10;;;;;;;14.09;59.69;102361.97;10451757;28;20040;-67
2021/04/18 10:19:19;;;;;;;0.10;0.10;;;;;;;14.29;56.74;102344.00;10449856;28;20247;-67
2021/04/18 10:24:31;;;;;;;0.10;0.10;;;;;;;14.14;56.60;102332.91;10452942;28;20028;-67
2021/04/18 10:29:32;;;;;;;0.10;0.10;;;;;;;14.43;55.51;102328.28;10426605;28;20025;-67
2021/04/18 10:34:32;;;;;;;0.10;0.10;;;;;;;14.34;56.47;102331.84;10423019;28;20114;-68
2021/04/18 10:39:33;;;;;;;0.10;0.10;;;;;;;14.77;56.97;102322.34;10445590;28;20479;-67
2021/04/18 10:44:33;;;;;;;0.10;0.10;;;;;;;14.75;51.95;102326.16;10446259;28;20095;-68
2021/04/18 10:49:34;;;;;;;0.10;0.10;;;;;;;14.48;55.69;102339.38;10446086;28;20029;-68
2021/04/18 10:54:34;;;;;;;0.10;0.10;;;;;;;14.31;60.09;102324.09;10422634;28;20025;-68
2021/04/18 10:59:35;;;;;;;0.10;0.10;;;;;;;14.73;57.86;102312.06;10418152;28;20025;-68
2021/04/18 11:04:36;;;;;;;0.10;0.10;;;;;;;14.27;57.71;102315.50;10415737;28;20052;-68
2021/04/18 11:09:37;;;;;;;0.10;0.10;;;;;;;14.31;53.33;102302.66;10413058;28;20055;-68
2021/04/18 11:14:37;;;;;;;0.10;0.10;;;;;;;14.67;54.84;102308.97;10411896;28;20387;-68
2021/04/18 11:19:38;;;;;;;0.10;0.10;;;;;;;15.01;53.38;102296.75;10410408;28;20108;-67
2021/04/18 11:24:38;;;;;;;0.10;0.10;;;;;;;15.12;55.06;102292.00;10411788;28;20450;-67
2021/04/18 11:29:40;;;;;;;0.10;0.10;;;;;;;15.25;54.58;102286.28;10411428;28;20021;-67
2021/04/18 11:34:40;;;;;;;0.10;0.10;;;;;;;15.41;53.95;102280.19;10410676;28;20074;-67
2021/04/18 11:39:41;;;;;;;0.20;0.20;;;;;;;15.19;51.44;102273.47;10410906;28;20033;-67
2021/04/18 11:44:41;;;;;;;0.10;0.10;;;;;;;15.13;52.20;102266.03;10411139;28;20025;-67
2021/04/18 11:49:42;;;;;;;0.10;0.10;;;;;;;15.65;52.32;102262.56;10408760;28;20017;-67
2021/04/18 11:54:42;;;;;;;0.10;0.10;;;;;;;15.75;51.91;102266.03;10410739;28;20508;-67
2021/04/18 11:59:42;;;;;;;0.10;0.10;;;;;;;15.63;54.55;102278.84;10418512;28;20020;-68
2021/04/18 12:04:42;;;;;;;0.10;0.10;;;;;;;15.62;54.06;102271.81;10411133;28;20112;-68
2021/04/18 12:09:43;;;;;;;0.10;0.10;;;;;;;15.38;55.00;102277.81;10439525;28;20395;-68
2021/04/18 12:14:43;;;;;;;0.10;0.10;;;;;;;14.90;53.24;102276.38;10450707;28;20048;-69
2021/04/18 12:19:43;;;;;;;0.10;0.10;;;;;;;14.33;56.81;102281.88;10450209;28;20025;-68
2021/04/18 12:24:44;;;;;;;0.10;0.10;;;;;;;14.56;55.38;102278.84;10447615;28;20095;-69
2021/04/18 12:29:44;;;;;;;0.10;0.10;;;;;;;15.02;56.40;102275.16;10449856;28;20025;-69
2021/04/18 12:34:44;;;;;;;0.10;0.10;;;;;;;15.11;57.51;102265.34;10424668;28;20032;-69
2021/04/18 12:39:45;;;;;;;0.10;0.10;;;;;;;15.28;57.51;102259.13;10408752;28;20025;-69
2021/04/18 12:44:45;;;;;;;0.10;0.10;;;;;;;15.17;56.55;102272.78;10421479;28;20027;-70
2021/04/18 12:49:46;;;;;;;0.10;0.10;;;;;;;15.22;59.28;102265.09;10449786;28;20025;-69
2021/04/18 12:54:47;;;;;;;0.10;0.10;;;;;;;15.24;57.08;102259.56;10450273;28;20025;-70
2021/04/18 12:59:53;;;;;;;0.10;0.10;;;;;;;15.42;57.67;102249.66;10448649;28;20024;-69
2021/04/18 13:04:57;;;;;;;0.10;0.10;;;;;;;15.60;53.48;102242.41;10446823;28;20028;-69
2021/04/18 13:10:05;;;;;;;0.10;0.10;;;;;;;15.80;58.59;102231.47;10449329;28;20028;-69
2021/04/18 13:15:06;;;;;;;0.10;0.10;;;;;;;16.06;56.68;102247.56;10431938;28;20061;-69
2021/04/18 13:20:09;;;;;;;0.10;0.10;;;;;;;16.26;54.35;102243.63;10407605;28;20049;-69
2021/04/18 13:25:11;;;;;;;0.10;0.10;;;;;;;16.53;52.85;102233.63;10430423;28;20166;-69
2021/04/18 13:30:13;;;;;;;0.10;0.10;;;;;;;16.27;55.97;102236.41;10439920;28;20040;-69
2021/04/18 13:35:13;;;;;;;0.10;0.10;;;;;;;16.00;53.53;102229.41;10441186;28;20539;-69
2021/04/18 13:40:16;;;;;;;0.10;0.10;;;;;;;15.84;51.94;102235.53;10437928;28;20123;-67
2021/04/18 13:45:18;;;;;;;0.10;0.10;;;;;;;15.60;56.67;102237.03;10424525;28;20101;-68
2021/04/18 13:50:19;;;;;;;0.10;0.10;;;;;;;15.38;58.92;102237.53;10406474;28;20034;-68
2021/04/18 13:55:19;;;;;;;0.10;0.10;;;;;;;15.16;56.77;102228.16;10439937;28;20475;-68
2021/04/18 14:00:20;;;;;;;0.10;0.10;;;;;;;15.08;55.17;102230.75;10454630;28;20098;-68
2021/04/18 14:05:21;;;;;;;0.10;0.10;;;;;;;14.89;59.27;102226.38;10451743;28;20024;-68
2021/04/18 14:10:22;;;;;;;0.10;0.10;;;;;;;14.96;56.13;102232.00;10452914;28;20025;-68
2021/04/18 14:15:22;;;;;;;0.10;0.10;;;;;;;15.18;56.81;102228.81;10454535;28;20027;-68
2021/04/18 14:20:23;;;;;;;0.10;0.10;;;;;;;15.45;57.97;102222.50;10450348;28;20039;-68
2021/04/18 14:25:23;;;;;;;0.10;0.10;;;;;;;15.69;55.44;102229.06;10430259;28;20025;-68
2021/04/18 14:30:23;;;;;;;0.10;0.10;;;;;;;15.72;56.94;102218.84;10413563;28;20763;-68
2021/04/18 14:35:24;;;;;;;0.10;0.10;;;;;;;15.31;57.94;102229.28;10449325;28;20354;-68
2021/04/18 14:40:24;;;;;;;0.10;0.10;;;;;;;15.00;56.57;102217.28;10454294;28;20271;-68
2021/04/18 14:45:25;;;;;;;0.10;0.10;;;;;;;14.92;57.86;102216.22;10454846;28;20036;-68
2021/04/18 14:50:25;;;;;;;0.10;0.10;;;;;;;15.31;54.96;102207.78;10454179;28;20017;-68
2021/04/18 14:55:26;;;;;;;0.10;0.10;;;;;;;15.57;56.58;102201.59;10429566;28;20550;-68
2021/04/18 15:00:28;;;;;;;0.10;0.10;;;;;;;15.52;54.98;102199.38;10434391;28;20147;-68
2021/04/18 15:05:28;;;;;;;0.10;0.10;;;;;;;15.49;55.88;102206.91;10453885;28;20430;-68
2021/04/18 15:10:28;;;;;;;0.10;0.10;;;;;;;15.45;57.06;102202.88;10451067;28;20032;-68
2021/04/18 15:15:29;;;;;;;0.10;0.10;;;;;;;15.20;57.28;102216.09;10452147;28;20441;-68
2021/04/18 15:20:30;;;;;;;0.10;0.10;;;;;;;15.20;59.82;102220.63;10450498;28;20374;-68
2021/04/18 15:25:30;;;;;;;0.10;0.10;;;;;;;15.03;60.08;102223.16;10448785;28;20088;-68
2021/04/18 15:30:31;;;;;;;0.10;0.10;;;;;;;14.85;59.26;102215.13;10449148;28;20029;-68
2021/04/18 15:35:31;;;;;;;0.10;0.10;;;;;;;14.73;61.25;102226.25;10452263;23;20494;-76
2021/04/18 15:40:34;;;;;;;0.10;0.10;;;;;;;14.48;59.19;102221.41;10451623;28;20029;-75
2021/04/18 15:45:34;;;;;;;0.10;0.10;;;;;;;14.33;59.27;102216.72;10452709;28;20039;-76
2021/04/18 15:50:36;;;;;;;0.10;0.10;;;;;;;14.15;61.22;102220.19;10450441;28;20108;-76
2021/04/18 15:55:37;;;;;;;0.10;0.10;;;;;;;13.89;61.86;102225.38;10452195;28;20505;-76
2021/04/18 16:00:38;;;;;;;0.10;0.10;;;;;;;13.68;63.92;102217.56;10451545;28;20218;-76
2021/04/18 16:05:38;;;;;;;0.20;0.20;;;;;;;13.52;64.20;102231.56;10433828;28;20468;-76
2021/04/18 16:10:39;;;;;;;0.10;0.10;;;;;;;13.42;65.00;102230.75;10451113;28;20483;-76
2021/04/18 16:15:39;;;;;;;0.10;0.10;;;;;;;13.43;64.16;102227.06;10451325;28;20033;-76
2021/04/18 16:20:39;;;;;;;0.10;0.10;;;;;;;13.37;64.43;102230.31;10450362;28;20033;-76
2021/04/18 16:25:40;;;;;;;0.10;0.10;;;;;;;13.26;64.95;102236.66;10451162;28;20039;-76
2021/04/18 16:30:40;;;;;;;0.10;0.10;;;;;;;13.13;63.77;102239.59;10450825;28;20123;-75
2021/04/18 16:35:41;;;;;;;0.10;0.10;;;;;;;13.08;64.21;102247.19;10450683;28;20024;-76
2021/04/18 16:40:41;;;;;;;0.10;0.10;;;;;;;13.07;63.52;102236.66;10450231;28;20033;-76
2021/04/18 16:45:41;;;;;;;0.10;0.10;;;;;;;13.05;64.34;102254.66;10450960;28;20036;-76
2021/04/18 16:50:42;;;;;;;0.10;0.10;;;;;;;12.88;65.35;102264.22;10449990;28;20067;-76
2021/04/18 16:55:42;;;;;;;0.10;0.10;;;;;;;12.69;67.04;102265.06;10450510;28;20021;-76
2021/04/18 17:00:44;;;;;;;0.10;0.10;;;;;;;12.56;67.32;102273.31;10449967;28;20037;-75
2021/04/18 17:05:45;;;;;;;0.10;0.10;;;;;;;12.43;67.98;102275.41;10451282;28;20025;-75
2021/04/18 17:10:45;;;;;;;0.10;0.10;;;;;;;12.32;67.24;102278.16;10447783;28;20025;-75
2021/04/18 17:15:46;;;;;;;0.10;0.10;;;;;;;12.26;67.68;102286.72;10449263;28;20040;-75
2021/04/18 17:20:46;;;;;;;0.13;0.13;;;;;;;12.16;64.46;102290.22;10448928;28;20114;-75
2021/04/18 17:25:47;;;;;;;0.10;0.10;;;;;;;12.03;64.63;102294.06;10449473;28;20294;-75
2021/04/18 17:30:47;;;;;;;0.10;0.10;;;;;;;11.82;66.99;102292.25;10455558;28;20041;-75
2021/04/18 17:35:48;;;;;;;0.10;0.10;;;;;;;11.60;67.25;102303.88;10457240;28;20020;-74
2021/04/18 17:40:48;;;;;;;0.10;0.10;;;;;;;11.39;64.50;102306.53;10456818;28;20267;-75
2021/04/18 17:45:49;;;;;;;0.10;0.10;;;;;;;11.26;63.94;102309.41;10457115;28;20237;-75
2021/04/18 17:50:49;;;;;;;0.00;0.00;;;;;;;11.18;62.69;102303.84;10437995;28;20078;-75
2021/04/18 17:55:50;;;;;;;0.10;0.10;;;;;;;11.08;63.08;102311.78;10456928;28;20036;-75
2021/04/18 18:00:50;;;;;;;0.10;0.10;;;;;;;10.94;64.26;102317.38;10446815;28;20060;-75
2021/04/18 18:05:52;;;;;;;0.10;0.10;;;;;;;10.74;63.87;102327.00;10452310;28;20017;-75
2021/04/18 18:10:53;;;;;;;0.10;0.10;;;;;;;10.55;64.60;102321.44;10454224;28;20342;-75
2021/04/18 18:15:53;;;;;;;0.10;0.10;;;;;;;10.35;63.21;102333.66;10454566;28;20014;-75
2021/04/18 18:20:58;;;;;;;0.10;0.10;;;;;;;10.11;65.97;102328.44;10450072;28;20029;-75
2021/04/18 18:25:58;;;;;;;0.05;0.05;;;;;;;9.95;62.93;102329.63;10436333;28;20697;-75
2021/04/18 18:30:59;;;;;;;0.10;0.10;;;;;;;9.80;65.34;102325.44;10452860;28;20108;-74
2021/04/18 18:35:59;;;;;;;0.00;0.00;;;;;;;9.55;66.19;102329.16;10453376;28;20447;-74
2021/04/18 18:41:00;;;;;;;0.00;0.00;;;;;;;9.36;68.24;102337.66;10451776;28;20032;-74
2021/04/18 18:46:00;;;;;;;0.00;0.00;;;;;;;9.17;68.91;102329.34;10453570;28;20029;-74
2021/04/18 18:51:08;;;;;;;0.10;0.10;;;;;;;9.07;69.20;102331.81;10448085;28;20070;-74
2021/04/18 18:56:11;;;;;;;0.00;0.00;;;;;;;9.01;69.58;102329.63;10452590;28;20352;-74
2021/04/18 19:01:17;;;;;;;0.03;0.03;;;;;;;9.11;65.02;102332.47;10451527;28;20113;-74
2021/04/18 19:06:18;;;;;;;0.00;0.00;;;;;;;9.16;63.95;102343.59;10452457;28;20082;-74
2021/04/18 19:11:18;;;;;;;0.00;0.00;;;;;;;9.10;65.73;102358.19;10453737;28;20025;-74
2021/04/18 19:16:18;;;;;;;0.00;0.00;;;;;;;9.07;64.88;102364.59;10453336;28;20283;-74
2021/04/18 19:21:19;;;;;;;0.00;0.00;;;;;;;9.27;61.97;102364.91;10448821;28;20116;-74
2021/04/18 19:26:19;;;;;;;0.00;0.00;;;;;;;9.34;63.63;102366.19;10451847;28;20271;-73
2021/04/18 19:31:19;;;;;;;0.10;0.10;;;;;;;9.08;66.82;102378.72;10450556;28;20362;-74
2021/04/18 19:36:20;;;;;;;0.00;0.00;;;;;;;8.73;67.94;102382.13;10451413;28;20078;-74
2021/04/18 19:41:21;;;;;;;0.10;0.10;;;;;;;8.48;71.69;102366.19;10451187;28;20037;-73
2021/04/18 19:46:21;;;;;;;0.00;0.00;;;;;;;8.31;72.55;102368.19;10434713;28;20049;-73
2021/04/18 19:51:22;;;;;;;0.00;0.00;;;;;;;8.23;72.45;102369.69;10452399;28;20549;-73
2021/04/18 19:56:22;;;;;;;0.00;0.00;;;;;;;8.16;73.06;102379.88;10452119;28;20102;-73
2021/04/18 20:01:22;;;;;;;0.10;0.10;;;;;;;8.14;73.00;102365.84;10449406;28;20021;-73
2021/04/18 20:06:23;;;;;;;0.00;0.00;;;;;;;8.10;72.18;102383.78;10450060;28;20024;-73
2021/04/18 20:11:23;;;;;;;0.00;0.00;;;;;;;8.13;69.82;102374.78;10449538;28;20021;-73
2021/04/18 20:16:23;;;;;;;0.00;0.00;;;;;;;8.08;70.00;102377.72;10449635;28;20281;-73
2021/04/18 20:21:35;;;;;;;0.00;0.00;;;;;;;8.05;70.38;102380.59;10446786;28;20021;-73
2021/04/18 20:26:35;;;;;;;0.00;0.00;;;;;;;7.99;72.62;102383.69;10449862;28;20021;-73
2021/04/18 20:31:36;;;;;;;0.00;0.00;;;;;;;7.83;75.74;102375.91;10448848;28;20388;-73
2021/04/18 20:36:38;;;;;;;0.00;0.00;;;;;;;7.66;77.10;102366.44;10449936;28;20021;-74
2021/04/18 20:41:38;;;;;;;0.00;0.00;;;;;;;7.58;78.35;102363.44;10451254;28;20225;-73
2021/04/18 20:46:39;;;;;;;0.00;0.00;;;;;;;7.52;79.03;102353.25;10451241;28;20460;-74
2021/04/18 20:51:39;;;;;;;0.00;0.00;;;;;;;7.46;79.49;102362.44;10446413;28;20112;-73
2021/04/18 20:56:39;;;;;;;0.00;0.00;;;;;;;7.44;79.93;102353.75;10449208;28;20489;-73
2021/04/18 21:01:40;;;;;;;0.00;0.00;;;;;;;7.42;80.70;102345.06;10406082;28;20037;-73
2021/04/18 21:06:40;;;;;;;0.10;0.10;;;;;;;7.37;80.79;102354.25;10397934;28;20014;-72
2021/04/18 21:11:45;;;;;;;0.00;0.00;;;;;;;7.31;81.69;102352.03;10415532;28;20025;-72
2021/04/18 21:16:46;;;;;;;0.00;0.00;;;;;;;7.23;82.03;102350.69;10451200;28;20765;-73
2021/04/18 21:21:46;;;;;;;0.00;0.00;;;;;;;7.20;82.01;102348.25;10452113;28;20021;-73
2021/04/18 21:26:46;;;;;;;0.00;0.00;;;;;;;7.16;82.71;102354.72;10457729;28;20025;-73
2021/04/18 21:31:47;;;;;;;0.00;0.00;;;;;;;7.13;83.48;102340.81;10454681;28;20065;-73
2021/04/18 21:36:47;;;;;;;0.00;0.00;;;;;;;7.08;83.94;102340.25;10455948;28;20280;-73
2021/04/18 21:41:47;;;;;;;0.00;0.00;;;;;;;7.05;83.93;102336.00;10456027;28;20436;-72
2021/04/18 21:46:48;;;;;;;0.10;0.10;;;;;;;7.00;83.32;102336.28;10456210;28;20029;-72
2021/04/18 21:51:49;;;;;;;0.00;0.00;;;;;;;6.97;83.75;102338.28;10434186;28;20268;-72
2021/04/18 21:56:49;;;;;;;0.00;0.00;;;;;;;6.97;83.73;102339.13;10441070;22;20039;-70
2021/04/18 22:01:50;;;;;;;0.00;0.00;;;;;;;6.95;83.59;102338.41;10424198;28;20027;-70
2021/04/18 22:06:50;;;;;;;0.00;0.00;;;;;;;6.89;84.47;102340.59;10436706;28;20024;-70
2021/04/18 22:11:50;;;;;;;0.00;0.00;;;;;;;6.84;83.99;102335.59;10435772;28;20021;-70
2021/04/18 22:16:51;;;;;;;0.00;0.00;;;;;;;6.85;84.74;102334.63;10432779;28;20467;-70
2021/04/18 22:21:51;;;;;;;0.00;0.00;;;;;;;6.91;84.96;102351.94;10421424;28;20464;-70
2021/04/18 22:26:51;;;;;;;0.03;0.03;;;;;;;6.91;84.96;102357.25;10414223;28;20270;-70
2021/04/18 22:31:52;;;;;;;0.00;0.00;;;;;;;6.79;86.65;102362.38;10411612;28;20013;-69
2021/04/18 22:36:52;;;;;;;0.10;0.10;;;;;;;6.69;87.26;102360.38;10421594;28;20029;-70
2021/04/18 22:41:53;;;;;;;0.00;0.00;;;;;;;6.64;87.33;102360.69;10454848;28;20025;-70
2021/04/18 22:46:53;;;;;;;0.00;0.00;;;;;;;6.62;86.76;102361.72;10455013;28;20060;-70
2021/04/18 22:51:53;;;;;;;0.00;0.00;;;;;;;6.66;86.39;102357.94;10454057;28;20361;-69
2021/04/18 22:56:54;;;;;;;0.00;0.00;;;;;;;6.63;85.90;102353.66;10454464;28;20454;-70
2021/04/18 23:01:54;;;;;;;0.00;0.00;;;;;;;6.58;86.65;102351.31;10427628;28;20267;-70
2021/04/18 23:06:54;;;;;;;0.00;0.00;;;;;;;6.56;86.34;102353.22;10412867;28;20361;-70
2021/04/18 23:11:55;;;;;;;0.00;0.00;;;;;;;6.55;86.18;102358.63;10412290;28;20739;-70
2021/04/18 23:16:55;;;;;;;0.00;0.00;;;;;;;6.55;86.87;102361.25;10412649;28;20021;-69